createdAt,value
2019-02-22T00:00:29.513Z,-4.01
2019-02-22T00:01:40.703Z,-4.03
2019-02-22T00:02:45.110Z,-4.04
2019-02-22T00:03:49.410Z,-4.05
2019-02-22T00:04:53.704Z,-4.08
2019-02-22T00:05:58.083Z,-4.09
2019-02-22T00:07:02.389Z,-4.10
2019-02-22T00:08:06.706Z,-4.12
2019-02-22T00:09:11.148Z,-4.12
2019-02-22T00:10:15.521Z,-4.15
2019-02-22T00:11:19.756Z,-4.16
2019-02-22T00:12:24.088Z,-4.18
2019-02-22T00:13:28.453Z,-4.19
2019-02-22T00:14:32.660Z,-4.21
2019-02-22T00:15:36.959Z,-4.21
2019-02-22T00:16:41.265Z,-4.23
2019-02-22T00:17:45.604Z,-4.25
2019-02-22T00:18:49.898Z,-4.27
2019-02-22T00:19:54.192Z,-4.28
2019-02-22T00:20:58.520Z,-4.28
2019-02-22T00:22:02.730Z,-4.30
2019-02-22T00:23:07.053Z,-4.29
2019-02-22T00:24:11.342Z,-4.30
2019-02-22T00:25:15.656Z,-4.32
2019-02-22T00:26:19.859Z,-4.33
2019-02-22T00:27:24.153Z,-4.34
2019-02-22T00:28:28.671Z,-4.35
2019-02-22T00:29:32.958Z,-4.36
2019-02-22T00:30:37.277Z,-4.37
2019-02-22T00:31:41.564Z,-4.38
2019-02-22T00:32:45.805Z,-4.39
2019-02-22T00:33:50.154Z,-4.40
2019-02-22T00:34:54.606Z,-4.40
2019-02-22T00:35:58.822Z,-4.42
2019-02-22T00:37:03.130Z,-4.44
2019-02-22T00:38:07.549Z,-4.44
2019-02-22T00:39:11.798Z,-4.47
2019-02-22T00:40:16.162Z,-4.48
2019-02-22T00:41:20.384Z,-4.50
2019-02-22T00:42:24.752Z,-4.50
2019-02-22T00:43:29.021Z,-4.51
2019-02-22T00:44:33.444Z,-4.52
2019-02-22T00:45:37.797Z,-4.54
2019-02-22T00:46:42.022Z,-4.56
2019-02-22T00:47:46.226Z,-4.57
2019-02-22T00:48:50.503Z,-4.58
2019-02-22T00:49:54.875Z,-4.58
2019-02-22T00:50:59.135Z,-4.59
2019-02-22T00:52:03.379Z,-4.61
2019-02-22T00:53:07.773Z,-4.62
2019-02-22T00:54:12.012Z,-4.63
2019-02-22T00:55:16.386Z,-4.63
2019-02-22T00:56:20.682Z,-4.64
2019-02-22T00:57:24.959Z,-4.65
2019-02-22T00:58:29.399Z,-4.67
2019-02-22T00:59:33.730Z,-4.68
2019-02-22T01:00:38.184Z,-4.69
2019-02-22T01:01:42.528Z,-4.70
2019-02-22T01:02:46.774Z,-4.70
2019-02-22T01:03:51.146Z,-4.73
2019-02-22T01:04:55.402Z,-4.74
2019-02-22T01:05:59.766Z,-4.75
2019-02-22T01:07:04.142Z,-4.76
2019-02-22T01:08:08.661Z,-4.79
2019-02-22T01:09:12.887Z,-4.80
2019-02-22T01:10:17.250Z,-4.82
2019-02-22T01:11:21.669Z,-4.82
2019-02-22T01:12:25.905Z,-4.85
2019-02-22T01:13:30.227Z,-4.86
2019-02-22T01:14:34.632Z,-4.89
2019-02-22T01:15:38.845Z,-4.88
2019-02-22T01:16:43.203Z,-4.89
2019-02-22T01:17:47.546Z,-4.90
2019-02-22T01:18:51.800Z,-4.92
2019-02-22T01:19:56.186Z,-4.94
2019-02-22T01:21:00.482Z,-4.94
2019-02-22T01:22:04.846Z,-4.95
2019-02-22T01:23:09.215Z,-4.96
2019-02-22T01:24:13.524Z,-4.97
2019-02-22T01:25:17.838Z,-5.00
2019-02-22T01:26:22.140Z,-5.00
2019-02-22T01:27:26.481Z,-5.01
2019-02-22T01:28:30.867Z,-5.03
2019-02-22T01:29:35.366Z,-5.04
2019-02-22T01:30:39.697Z,-5.05
2019-02-22T01:31:44.112Z,-5.05
2019-02-22T01:32:48.520Z,-5.05
2019-02-22T01:33:54.228Z,-5.06
2019-02-22T01:34:57.221Z,-5.06
2019-02-22T01:36:01.321Z,-5.07
2019-02-22T01:37:05.632Z,-5.08
2019-02-22T01:38:09.869Z,-5.09
2019-02-22T01:39:14.270Z,-5.10
2019-02-22T01:40:18.646Z,-5.12
2019-02-22T01:41:22.973Z,-5.13
2019-02-22T01:42:27.321Z,-5.13
2019-02-22T01:43:33.392Z,-5.14
2019-02-22T01:44:35.906Z,-5.16
2019-02-22T01:45:40.198Z,-5.16
2019-02-22T01:46:44.449Z,-5.18
2019-02-22T01:47:48.802Z,-5.18
2019-02-22T01:48:53.171Z,-5.18
2019-02-22T01:49:57.513Z,-5.19
2019-02-22T01:51:01.835Z,-5.21
2019-02-22T01:52:06.366Z,-5.22
2019-02-22T01:53:10.634Z,-5.23
2019-02-22T01:54:14.923Z,-5.23
2019-02-22T01:55:19.179Z,-5.25
2019-02-22T01:56:23.475Z,-5.26
2019-02-22T01:57:27.727Z,-5.27
2019-02-22T01:58:32.102Z,-5.27
2019-02-22T01:59:36.474Z,-5.28
2019-02-22T02:00:40.709Z,-5.30
2019-02-22T02:01:45.029Z,-5.30
2019-02-22T02:02:49.290Z,-5.31
2019-02-22T02:03:53.627Z,-5.33
2019-02-22T02:04:57.894Z,-5.34
2019-02-22T02:06:02.207Z,-5.34
2019-02-22T02:07:06.561Z,-5.36
2019-02-22T02:08:10.861Z,-5.37
2019-02-22T02:09:15.257Z,-5.39
2019-02-22T02:10:19.616Z,-5.39
2019-02-22T02:11:23.777Z,-5.40
2019-02-22T02:12:28.075Z,-5.39
2019-02-22T02:13:32.419Z,-5.39
2019-02-22T02:14:36.629Z,-5.40
2019-02-22T02:15:40.953Z,-5.39
2019-02-22T02:16:45.334Z,-5.40
2019-02-22T02:17:49.535Z,-5.41
2019-02-22T02:18:53.861Z,-5.40
2019-02-22T02:19:58.274Z,-5.41
2019-02-22T02:21:02.598Z,-5.44
2019-02-22T02:22:06.805Z,-5.44
2019-02-22T02:23:11.163Z,-5.45
2019-02-22T02:24:15.504Z,-5.45
2019-02-22T02:25:19.955Z,-5.47
2019-02-22T02:26:24.197Z,-5.47
2019-02-22T02:27:28.530Z,-5.50
2019-02-22T02:28:32.718Z,-5.52
2019-02-22T02:29:37.148Z,-5.54
2019-02-22T02:30:41.454Z,-5.56
2019-02-22T02:31:45.741Z,-5.56
2019-02-22T02:32:49.964Z,-5.59
2019-02-22T02:33:54.332Z,-5.58
2019-02-22T02:34:58.681Z,-5.59
2019-02-22T02:36:02.941Z,-5.61
2019-02-22T02:37:07.199Z,-5.62
2019-02-22T02:38:11.508Z,-5.63
2019-02-22T02:39:15.797Z,-5.65
2019-02-22T02:40:20.013Z,-5.64
2019-02-22T02:41:24.176Z,-5.66
2019-02-22T02:42:28.529Z,-5.68
2019-02-22T02:43:32.762Z,-5.67
2019-02-22T02:44:37.061Z,-5.69
2019-02-22T02:45:41.417Z,-5.70
2019-02-22T02:46:45.728Z,-5.70
2019-02-22T02:47:49.967Z,-5.71
2019-02-22T02:48:54.267Z,-5.73
2019-02-22T02:49:58.596Z,-5.73
2019-02-22T02:51:02.875Z,-5.73
2019-02-22T02:52:07.372Z,-5.74
2019-02-22T02:53:11.639Z,-5.77
2019-02-22T02:54:16.003Z,-5.77
2019-02-22T02:55:28.188Z,-5.79
2019-02-22T02:56:32.522Z,-5.80
2019-02-22T02:57:36.996Z,-5.81
2019-02-22T02:58:41.374Z,-5.82
2019-02-22T02:59:45.763Z,-5.84
2019-02-22T03:00:50.085Z,-5.86
2019-02-22T03:01:54.455Z,-5.87
2019-02-22T03:02:58.826Z,-5.88
2019-02-22T03:04:03.107Z,-5.90
2019-02-22T03:05:07.413Z,-5.92
2019-02-22T03:06:26.581Z,-5.92
2019-02-22T03:07:48.949Z,-5.94
2019-02-22T03:08:53.313Z,-5.96
2019-02-22T03:10:03.985Z,-5.98
2019-02-22T03:11:19.755Z,-5.99
2019-02-22T03:12:12.678Z,-5.99
2019-02-22T03:13:17.007Z,-5.99
2019-02-22T03:14:21.313Z,-5.99
2019-02-22T03:15:25.621Z,-6.00
2019-02-22T03:16:29.813Z,-6.00
2019-02-22T03:17:34.090Z,-6.01
2019-02-22T03:18:38.443Z,-6.00
2019-02-22T03:19:42.743Z,-5.99
2019-02-22T03:20:47.030Z,-5.99
2019-02-22T03:21:51.346Z,-6.01
2019-02-22T03:22:55.685Z,-6.01
2019-02-22T03:24:00.115Z,-6.02
2019-02-22T03:25:04.578Z,-6.03
2019-02-22T03:26:08.877Z,-6.03
2019-02-22T03:27:13.220Z,-6.06
2019-02-22T03:28:17.632Z,-6.05
2019-02-22T03:29:21.844Z,-6.06
2019-02-22T03:30:26.139Z,-6.06
2019-02-22T03:31:30.445Z,-6.08
2019-02-22T03:32:34.714Z,-6.08
2019-02-22T03:33:39.071Z,-6.10
2019-02-22T03:34:43.345Z,-6.11
2019-02-22T03:35:47.660Z,-6.12
2019-02-22T03:36:51.873Z,-6.13
2019-02-22T03:37:56.092Z,-6.14
2019-02-22T03:39:00.284Z,-6.16
2019-02-22T03:40:04.574Z,-6.15
2019-02-22T03:41:08.787Z,-6.16
2019-02-22T03:42:13.099Z,-6.17
2019-02-22T03:43:17.320Z,-6.18
2019-02-22T03:44:21.626Z,-6.19
2019-02-22T03:45:25.745Z,-6.19
2019-02-22T03:46:30.033Z,-6.19
2019-02-22T03:47:35.392Z,-6.21
2019-02-22T03:48:38.638Z,-6.21
2019-02-22T03:49:42.895Z,-6.22
2019-02-22T03:50:47.141Z,-6.22
2019-02-22T03:51:51.375Z,-6.23
2019-02-22T03:53:02.665Z,-6.24
2019-02-22T03:54:07.155Z,-6.24
2019-02-22T03:55:11.424Z,-6.25
2019-02-22T03:56:15.704Z,-6.25
2019-02-22T03:57:19.952Z,-6.24
2019-02-22T03:58:24.306Z,-6.25
2019-02-22T03:59:28.591Z,-6.25
2019-02-22T04:00:32.916Z,-6.25
2019-02-22T04:01:37.235Z,-6.25
2019-02-22T04:02:41.594Z,-6.25
2019-02-22T04:03:45.822Z,-6.26
2019-02-22T04:04:50.126Z,-6.28
2019-02-22T04:05:54.449Z,-6.28
2019-02-22T04:06:58.651Z,-6.29
2019-02-22T04:08:02.970Z,-6.29
2019-02-22T04:09:11.370Z,-6.31
2019-02-22T04:10:15.679Z,-6.32
2019-02-22T04:11:20.009Z,-6.33
2019-02-22T04:12:24.379Z,-6.34
2019-02-22T04:13:28.683Z,-6.34
2019-02-22T04:14:32.879Z,-6.35
2019-02-22T04:15:37.211Z,-6.36
2019-02-22T04:16:41.498Z,-6.36
2019-02-22T04:17:45.811Z,-6.36
2019-02-22T04:18:50.225Z,-6.38
2019-02-22T04:19:54.434Z,-6.39
2019-02-22T04:20:58.799Z,-6.40
2019-02-22T04:22:03.218Z,-6.41
2019-02-22T04:23:07.552Z,-6.43
2019-02-22T04:24:11.774Z,-6.44
2019-02-22T04:25:15.910Z,-6.44
2019-02-22T04:26:20.284Z,-6.45
2019-02-22T04:27:24.610Z,-6.45
2019-02-22T04:28:28.896Z,-6.47
2019-02-22T04:29:33.241Z,-6.48
2019-02-22T04:30:38.096Z,-6.49
2019-02-22T04:31:41.819Z,-6.49
2019-02-22T04:32:46.170Z,-6.50
2019-02-22T04:33:50.548Z,-6.53
2019-02-22T04:34:54.742Z,-6.54
2019-02-22T04:35:59.057Z,-6.54
2019-02-22T04:37:03.274Z,-6.57
2019-02-22T04:38:07.694Z,-6.55
2019-02-22T04:39:12.082Z,-6.57
2019-02-22T04:40:16.481Z,-6.59
2019-02-22T04:41:20.801Z,-6.57
2019-02-22T04:42:25.060Z,-6.59
2019-02-22T04:43:29.474Z,-6.59
2019-02-22T04:44:33.828Z,-6.60
2019-02-22T04:45:38.134Z,-6.62
2019-02-22T04:46:42.459Z,-6.61
2019-02-22T04:47:46.658Z,-6.61
2019-02-22T04:48:51.007Z,-6.62
2019-02-22T04:49:55.280Z,-6.63
2019-02-22T04:50:59.614Z,-6.64
2019-02-22T04:52:03.893Z,-6.65
2019-02-22T04:53:08.112Z,-6.66
2019-02-22T04:54:12.365Z,-6.65
2019-02-22T04:55:16.613Z,-6.68
2019-02-22T04:56:20.928Z,-6.67
2019-02-22T04:57:25.035Z,-6.68
2019-02-22T04:58:29.431Z,-6.69
2019-02-22T04:59:33.799Z,-6.70
2019-02-22T05:00:38.141Z,-6.70
2019-02-22T05:01:42.466Z,-6.72
2019-02-22T05:02:46.757Z,-6.73
2019-02-22T05:03:51.086Z,-6.74
2019-02-22T05:04:55.314Z,-6.73
2019-02-22T05:05:59.701Z,-6.74
2019-02-22T05:07:03.880Z,-6.74
2019-02-22T05:08:08.234Z,-6.73
2019-02-22T05:09:12.515Z,-6.74
2019-02-22T05:10:16.927Z,-6.74
2019-02-22T05:11:21.122Z,-6.73
2019-02-22T05:12:25.543Z,-6.73
2019-02-22T05:13:29.763Z,-6.73
2019-02-22T05:14:34.083Z,-6.73
2019-02-22T05:15:38.229Z,-6.74
2019-02-22T05:16:42.551Z,-6.72
2019-02-22T05:17:46.891Z,-6.74
2019-02-22T05:18:51.186Z,-6.73
2019-02-22T05:19:55.491Z,-6.72
2019-02-22T05:20:59.855Z,-6.73
2019-02-22T05:22:04.188Z,-6.75
2019-02-22T05:23:08.546Z,-6.74
2019-02-22T05:24:12.721Z,-6.74
2019-02-22T05:25:17.043Z,-6.76
2019-02-22T05:26:21.265Z,-6.74
2019-02-22T05:27:25.570Z,-6.76
2019-02-22T05:28:29.864Z,-6.76
2019-02-22T05:29:34.148Z,-6.76
2019-02-22T05:30:38.376Z,-6.77
2019-02-22T05:31:42.743Z,-6.77
2019-02-22T05:32:46.984Z,-6.78
2019-02-22T05:33:51.287Z,-6.79
2019-02-22T05:34:55.610Z,-6.80
2019-02-22T05:35:59.861Z,-6.79
2019-02-22T05:37:04.263Z,-6.78
2019-02-22T05:38:08.676Z,-6.79
2019-02-22T05:39:19.114Z,-6.79
2019-02-22T05:40:17.345Z,-6.80
2019-02-22T05:41:21.640Z,-6.81
2019-02-22T05:42:28.526Z,-6.81
2019-02-22T05:43:30.177Z,-6.81
2019-02-22T05:44:34.499Z,-6.81
2019-02-22T05:45:38.684Z,-6.81
2019-02-22T05:46:42.970Z,-6.83
2019-02-22T05:47:47.355Z,-6.83
2019-02-22T05:48:51.652Z,-6.84
2019-02-22T05:49:55.922Z,-6.85
2019-02-22T05:51:00.126Z,-6.84
2019-02-22T05:52:04.331Z,-6.84
2019-02-22T05:53:08.762Z,-6.85
2019-02-22T05:54:13.061Z,-6.84
2019-02-22T05:55:17.251Z,-6.85
2019-02-22T05:56:21.566Z,-6.85
2019-02-22T05:57:25.760Z,-6.85
2019-02-22T05:58:30.133Z,-6.85
2019-02-22T05:59:34.495Z,-6.86
2019-02-22T06:00:38.799Z,-6.87
2019-02-22T06:01:43.191Z,-6.87
2019-02-22T06:02:47.629Z,-6.87
2019-02-22T06:03:52.130Z,-6.87
2019-02-22T06:04:56.437Z,-6.87
2019-02-22T06:06:00.777Z,-6.87
2019-02-22T06:07:05.215Z,-6.86
2019-02-22T06:08:09.593Z,-6.87
2019-02-22T06:09:13.927Z,-6.87
2019-02-22T06:10:18.334Z,-6.88
2019-02-22T06:11:22.715Z,-6.88
2019-02-22T06:12:34.513Z,-6.89
2019-02-22T06:13:31.345Z,-6.90
2019-02-22T06:14:35.789Z,-6.90
2019-02-22T06:15:40.134Z,-6.91
2019-02-22T06:16:46.231Z,-6.92
2019-02-22T06:17:50.676Z,-6.92
2019-02-22T06:18:54.918Z,-6.94
2019-02-22T06:19:59.207Z,-6.95
2019-02-22T06:21:03.510Z,-6.95
2019-02-22T06:22:07.118Z,-6.96
2019-02-22T06:23:11.450Z,-6.96
2019-02-22T06:24:15.741Z,-6.95
2019-02-22T06:25:19.953Z,-6.96
2019-02-22T06:26:24.250Z,-6.97
2019-02-22T06:27:28.543Z,-6.98
2019-02-22T06:28:32.871Z,-6.99
2019-02-22T06:29:37.086Z,-6.99
2019-02-22T06:30:41.584Z,-6.99
2019-02-22T06:31:45.835Z,-7.00
2019-02-22T06:32:50.098Z,-7.00
2019-02-22T06:33:54.279Z,-7.01
2019-02-22T06:34:58.611Z,-7.01
2019-02-22T06:36:02.871Z,-7.01
2019-02-22T06:37:07.211Z,-7.02
2019-02-22T06:38:11.543Z,-7.02
2019-02-22T06:39:15.735Z,-7.02
2019-02-22T06:40:20.061Z,-7.02
2019-02-22T06:41:24.168Z,-7.02
2019-02-22T06:42:28.465Z,-7.02
2019-02-22T06:43:32.660Z,-7.03
2019-02-22T06:44:36.848Z,-7.03
2019-02-22T06:45:41.273Z,-7.02
2019-02-22T06:46:45.517Z,-7.01
2019-02-22T06:47:49.875Z,-7.02
2019-02-22T06:48:54.141Z,-7.02
2019-02-22T06:49:58.517Z,-7.02
2019-02-22T06:51:02.829Z,-7.01
2019-02-22T06:52:07.160Z,-7.01
2019-02-22T06:53:11.551Z,-7.03
2019-02-22T06:54:15.845Z,-7.03
2019-02-22T06:55:20.174Z,-7.04
2019-02-22T06:56:24.410Z,-7.04
2019-02-22T06:57:28.958Z,-7.04
2019-02-22T06:58:33.293Z,-7.03
2019-02-22T06:59:37.578Z,-7.02
2019-02-22T07:00:41.915Z,-7.02
2019-02-22T07:01:46.195Z,-7.00
2019-02-22T07:02:50.657Z,-7.00
2019-02-22T07:03:55.110Z,-6.99
2019-02-22T07:04:59.422Z,-6.97
2019-02-22T07:06:05.665Z,-6.97
2019-02-22T07:07:08.088Z,-6.96
2019-02-22T07:08:12.418Z,-6.95
2019-02-22T07:09:16.885Z,-6.94
2019-02-22T07:10:21.247Z,-6.92
2019-02-22T07:11:29.770Z,-6.92
2019-02-22T07:12:38.258Z,-6.90
2019-02-22T07:13:42.612Z,-6.89
2019-02-22T07:14:47.054Z,-6.88
2019-02-22T07:15:51.287Z,-6.88
2019-02-22T07:16:55.560Z,-6.84
2019-02-22T07:17:59.827Z,-6.82
2019-02-22T07:19:04.149Z,-6.81
2019-02-22T07:20:09.990Z,-6.79
2019-02-22T07:21:14.314Z,-6.76
2019-02-22T07:22:18.513Z,-6.75
2019-02-22T07:23:22.879Z,-6.71
2019-02-22T07:24:27.120Z,-6.69
2019-02-22T07:25:31.330Z,-6.68
2019-02-22T07:26:35.558Z,-6.66
2019-02-22T07:27:39.846Z,-6.64
2019-02-22T07:28:44.218Z,-6.61
2019-02-22T07:29:48.463Z,-6.60
2019-02-22T07:30:52.773Z,-6.58
2019-02-22T07:32:05.274Z,-6.57
2019-02-22T07:33:01.405Z,-6.55
2019-02-22T07:34:05.651Z,-6.53
2019-02-22T07:35:10.027Z,-6.50
2019-02-22T07:36:14.324Z,-6.48
2019-02-22T07:37:18.677Z,-6.47
2019-02-22T07:38:22.922Z,-6.44
2019-02-22T07:39:28.241Z,-6.42
2019-02-22T07:40:31.750Z,-6.40
2019-02-22T07:41:36.091Z,-6.39
2019-02-22T07:42:40.405Z,-6.38
2019-02-22T07:43:44.778Z,-6.36
2019-02-22T07:44:49.162Z,-6.36
2019-02-22T07:45:53.487Z,-6.34
2019-02-22T07:46:57.918Z,-6.33
2019-02-22T07:48:02.269Z,-6.32
2019-02-22T07:49:06.735Z,-6.32
2019-02-22T07:50:12.053Z,-6.31
2019-02-22T07:51:16.368Z,-6.31
2019-02-22T07:52:20.698Z,-6.29
2019-02-22T07:53:25.005Z,-6.29
2019-02-22T07:54:29.419Z,-6.27
2019-02-22T07:55:33.872Z,-6.27
2019-02-22T07:56:38.235Z,-6.27
2019-02-22T07:57:42.480Z,-6.25
2019-02-22T07:58:46.826Z,-6.25
2019-02-22T07:59:51.178Z,-6.25
2019-02-22T08:00:55.635Z,-6.24
2019-02-22T08:01:59.985Z,-6.22
2019-02-22T08:03:04.256Z,-6.23
2019-02-22T08:04:08.558Z,-6.21
2019-02-22T08:05:12.873Z,-6.21
2019-02-22T08:06:17.260Z,-6.19
2019-02-22T08:07:21.503Z,-6.17
2019-02-22T08:08:25.917Z,-6.16
2019-02-22T08:09:30.146Z,-6.15
2019-02-22T08:10:34.333Z,-6.14
2019-02-22T08:11:38.699Z,-6.11
2019-02-22T08:12:43.041Z,-6.10
2019-02-22T08:13:47.374Z,-6.10
2019-02-22T08:14:51.607Z,-6.08
2019-02-22T08:15:55.891Z,-6.06
2019-02-22T08:17:00.230Z,-6.05
2019-02-22T08:18:04.586Z,-6.02
2019-02-22T08:19:11.135Z,-5.99
2019-02-22T08:20:13.498Z,-5.97
2019-02-22T08:21:17.938Z,-5.94
2019-02-22T08:22:22.386Z,-5.90
2019-02-22T08:23:26.669Z,-5.88
2019-02-22T08:24:30.977Z,-5.86
2019-02-22T08:25:35.393Z,-5.79
2019-02-22T08:26:39.761Z,-5.77
2019-02-22T08:27:53.028Z,-5.72
2019-02-22T08:28:48.506Z,-5.69
2019-02-22T08:29:52.800Z,-5.65
2019-02-22T08:30:57.054Z,-5.62
2019-02-22T08:32:01.344Z,-5.57
2019-02-22T08:33:05.774Z,-5.53
2019-02-22T08:34:10.057Z,-5.48
2019-02-22T08:35:14.407Z,-5.45
2019-02-22T08:36:18.690Z,-5.41
2019-02-22T08:37:22.961Z,-5.36
2019-02-22T08:38:27.313Z,-5.33
2019-02-22T08:39:31.691Z,-5.30
2019-02-22T08:40:35.901Z,-5.27
2019-02-22T08:41:40.191Z,-5.25
2019-02-22T08:42:44.402Z,-5.23
2019-02-22T08:43:48.758Z,-5.21
2019-02-22T08:44:53.120Z,-5.19
2019-02-22T08:45:57.437Z,-5.17
2019-02-22T08:47:01.858Z,-5.16
2019-02-22T08:48:06.234Z,-5.13
2019-02-22T08:49:10.714Z,-5.11
2019-02-22T08:50:14.963Z,-5.08
2019-02-22T08:51:19.309Z,-5.08
2019-02-22T08:52:23.597Z,-5.05
2019-02-22T08:53:27.879Z,-5.04
2019-02-22T08:54:32.240Z,-5.03
2019-02-22T08:55:36.772Z,-5.01
2019-02-22T08:56:41.001Z,-5.00
2019-02-22T08:57:45.444Z,-5.00
2019-02-22T08:58:49.714Z,-4.98
2019-02-22T08:59:54.172Z,-4.97
2019-02-22T09:00:58.555Z,-4.96
2019-02-22T09:02:02.886Z,-4.95
2019-02-22T09:03:07.421Z,-4.95
2019-02-22T09:04:11.899Z,-4.93
2019-02-22T09:05:16.334Z,-4.91
2019-02-22T09:06:20.742Z,-4.90
2019-02-22T09:07:25.155Z,-4.89
2019-02-22T09:08:29.553Z,-4.88
2019-02-22T09:09:33.867Z,-4.88
2019-02-22T09:10:38.249Z,-4.85
2019-02-22T09:11:42.580Z,-4.84
2019-02-22T09:12:47.124Z,-4.82
2019-02-22T09:13:51.184Z,-4.79
2019-02-22T09:14:55.503Z,-4.79
2019-02-22T09:15:59.815Z,-4.77
2019-02-22T09:17:04.206Z,-4.75
2019-02-22T09:18:08.512Z,-4.72
2019-02-22T09:19:12.843Z,-4.70
2019-02-22T09:20:17.196Z,-4.69
2019-02-22T09:21:21.548Z,-4.67
2019-02-22T09:22:25.851Z,-4.65
2019-02-22T09:23:30.161Z,-4.63
2019-02-22T09:24:34.363Z,-4.61
2019-02-22T09:25:38.733Z,-4.61
2019-02-22T09:26:43.115Z,-4.59
2019-02-22T09:27:47.586Z,-4.55
2019-02-22T09:28:51.921Z,-4.54
2019-02-22T09:29:59.178Z,-4.54
2019-02-22T09:31:00.889Z,-4.56
2019-02-22T09:32:05.251Z,-4.55
2019-02-22T09:33:09.658Z,-4.51
2019-02-22T09:34:13.989Z,-4.48
2019-02-22T09:35:18.416Z,-4.46
2019-02-22T09:36:22.822Z,-4.43
2019-02-22T09:37:27.031Z,-4.40
2019-02-22T09:38:31.304Z,-4.37
2019-02-22T09:39:35.620Z,-4.35
2019-02-22T09:40:39.857Z,-4.32
2019-02-22T09:41:44.387Z,-4.27
2019-02-22T09:42:48.744Z,-4.22
2019-02-22T09:43:55.576Z,-4.16
2019-02-22T09:44:57.388Z,-4.14
2019-02-22T09:46:01.660Z,-4.10
2019-02-22T09:47:06.035Z,-4.04
2019-02-22T09:48:10.403Z,-4.02
2019-02-22T09:49:14.801Z,-3.98
2019-02-22T09:50:19.028Z,-3.98
2019-02-22T09:51:23.359Z,-3.98
2019-02-22T09:52:27.698Z,-3.96
2019-02-22T09:53:31.926Z,-3.92
2019-02-22T09:54:36.515Z,-3.90
2019-02-22T09:55:40.843Z,-3.88
2019-02-22T09:56:45.219Z,-3.88
2019-02-22T09:57:49.635Z,-3.90
2019-02-22T09:58:53.981Z,-3.85
2019-02-22T09:59:58.150Z,-3.82
2019-02-22T10:01:02.625Z,-3.81
2019-02-22T10:02:06.921Z,-3.78
2019-02-22T10:03:11.575Z,-3.73
2019-02-22T10:04:15.936Z,-3.72
2019-02-22T10:05:20.285Z,-3.68
2019-02-22T10:06:24.653Z,-3.64
2019-02-22T10:07:28.860Z,-3.60
2019-02-22T10:08:33.335Z,-3.58
2019-02-22T10:09:37.646Z,-3.53
2019-02-22T10:10:41.969Z,-3.50
2019-02-22T10:11:46.307Z,-3.47
2019-02-22T10:12:50.694Z,-3.46
2019-02-22T10:14:06.061Z,-3.40
2019-02-22T10:14:59.743Z,-3.34
2019-02-22T10:16:04.127Z,-3.29
2019-02-22T10:17:08.380Z,-3.28
2019-02-22T10:18:12.797Z,-3.26
2019-02-22T10:19:17.227Z,-3.23
2019-02-22T10:20:21.601Z,-3.23
2019-02-22T10:21:25.988Z,-3.20
2019-02-22T10:22:30.389Z,-3.17
2019-02-22T10:23:34.648Z,-3.17
2019-02-22T10:24:39.120Z,-3.14
2019-02-22T10:25:43.441Z,-3.10
2019-02-22T10:26:48.049Z,-3.07
2019-02-22T10:27:52.146Z,-3.03
2019-02-22T10:28:56.465Z,-3.00
2019-02-22T10:30:00.844Z,-2.99
2019-02-22T10:31:04.931Z,-2.97
2019-02-22T10:32:09.178Z,-2.93
2019-02-22T10:33:13.592Z,-2.92
2019-02-22T10:34:17.998Z,-2.90
2019-02-22T10:35:22.370Z,-2.81
2019-02-22T10:36:26.719Z,-2.78
2019-02-22T10:37:31.042Z,-2.78
2019-02-22T10:38:36.090Z,-2.74
2019-02-22T10:39:39.676Z,-2.72
2019-02-22T10:40:43.989Z,-2.66
2019-02-22T10:41:48.364Z,-2.62
2019-02-22T10:42:52.552Z,-2.59
2019-02-22T10:43:56.866Z,-2.55
2019-02-22T10:45:01.153Z,-2.52
2019-02-22T10:46:05.568Z,-2.45
2019-02-22T10:47:09.901Z,-2.38
2019-02-22T10:48:14.205Z,-2.34
2019-02-22T10:49:18.595Z,-2.28
2019-02-22T10:50:22.933Z,-2.19
2019-02-22T10:51:27.322Z,-2.14
2019-02-22T10:52:31.576Z,-2.06
2019-02-22T10:53:35.960Z,-2.04
2019-02-22T10:54:40.366Z,-2.00
2019-02-22T10:55:44.565Z,-1.96
2019-02-22T10:56:48.942Z,-1.91
2019-02-22T10:57:53.300Z,-1.86
2019-02-22T10:58:57.597Z,-1.79
2019-02-22T11:00:01.821Z,-1.70
2019-02-22T11:01:06.210Z,-1.66
2019-02-22T11:02:10.371Z,-1.64
2019-02-22T11:03:14.717Z,-1.59
2019-02-22T11:04:19.034Z,-1.51
2019-02-22T11:05:23.327Z,-1.46
2019-02-22T11:06:27.653Z,-1.38
2019-02-22T11:07:31.920Z,-1.33
2019-02-22T11:08:36.251Z,-1.30
2019-02-22T11:09:40.671Z,-1.26
2019-02-22T11:10:45.100Z,-1.20
2019-02-22T11:11:49.408Z,-1.11
2019-02-22T11:12:53.663Z,-1.06
2019-02-22T11:13:58.017Z,-0.99
2019-02-22T11:15:02.256Z,-0.94
2019-02-22T11:16:06.612Z,-0.89
2019-02-22T11:17:10.961Z,-0.84
2019-02-22T11:18:15.297Z,-0.77
2019-02-22T11:19:19.653Z,-0.68
2019-02-22T11:20:23.882Z,-0.65
2019-02-22T11:21:28.270Z,-0.57
2019-02-22T11:22:32.614Z,-0.50
2019-02-22T11:23:37.022Z,-0.49
2019-02-22T11:24:41.328Z,-0.44
2019-02-22T11:25:45.706Z,-0.35
2019-02-22T11:26:50.030Z,-0.31
2019-02-22T11:27:54.405Z,-0.30
2019-02-22T11:28:58.749Z,-0.18
2019-02-22T11:30:03.154Z,-0.13
2019-02-22T11:31:07.450Z,-0.12
2019-02-22T11:32:11.984Z,-0.12
2019-02-22T11:33:16.301Z,-0.16
2019-02-22T11:34:20.734Z,-0.11
2019-02-22T11:35:25.102Z,-0.18
2019-02-22T11:36:29.312Z,-0.16
2019-02-22T11:37:33.612Z,-0.15
2019-02-22T11:38:37.922Z,-0.10
2019-02-22T11:39:42.302Z,-0.02
2019-02-22T11:40:46.645Z,0.01
2019-02-22T11:41:50.861Z,0.13
2019-02-22T11:42:55.283Z,0.15
2019-02-22T11:43:59.567Z,0.23
2019-02-22T11:45:03.890Z,0.28
2019-02-22T11:46:08.227Z,0.35
2019-02-22T11:47:12.677Z,0.37
2019-02-22T11:48:17.007Z,0.36
2019-02-22T11:49:21.298Z,0.41
2019-02-22T11:50:25.733Z,0.42
2019-02-22T11:51:30.057Z,0.42
2019-02-22T11:52:34.463Z,0.42
2019-02-22T11:53:38.855Z,0.42
2019-02-22T11:54:43.145Z,0.44
2019-02-22T11:55:47.521Z,0.36
2019-02-22T11:56:51.721Z,0.38
2019-02-22T11:57:55.902Z,0.49
2019-02-22T11:59:00.329Z,0.57
2019-02-22T12:00:04.992Z,0.59
2019-02-22T12:01:10.162Z,0.72
2019-02-22T12:02:14.540Z,0.77
2019-02-22T12:03:24.504Z,0.79
2019-02-22T12:04:23.291Z,0.82
2019-02-22T12:05:27.686Z,0.81
2019-02-22T12:06:32.093Z,0.85
2019-02-22T12:07:36.392Z,0.89
2019-02-22T12:08:40.706Z,1.00
2019-02-22T12:09:45.026Z,0.92
2019-02-22T12:10:49.288Z,1.02
2019-02-22T12:11:53.788Z,1.15
2019-02-22T12:12:58.032Z,1.10
2019-02-22T12:14:02.371Z,1.08
2019-02-22T12:15:06.861Z,1.12
2019-02-22T12:16:11.162Z,1.18
2019-02-22T12:17:15.483Z,1.20
2019-02-22T12:18:19.769Z,1.16
2019-02-22T12:19:23.994Z,1.23
2019-02-22T12:20:28.269Z,1.18
2019-02-22T12:21:32.293Z,1.19
2019-02-22T12:22:36.342Z,1.06
2019-02-22T12:23:40.345Z,1.15
2019-02-22T12:24:44.417Z,1.09
2019-02-22T12:25:48.457Z,1.12
2019-02-22T12:26:52.446Z,0.95
2019-02-22T12:27:56.502Z,0.88
2019-02-22T12:29:00.548Z,0.80
2019-02-22T12:30:05.348Z,0.86
2019-02-22T12:31:09.449Z,0.73
2019-02-22T12:32:13.534Z,0.78
2019-02-22T12:33:17.641Z,0.80
2019-02-22T12:34:21.662Z,0.84
2019-02-22T12:35:25.653Z,0.86
2019-02-22T12:36:29.708Z,0.91
2019-02-22T12:37:33.750Z,0.96
2019-02-22T12:38:37.795Z,0.94
2019-02-22T12:39:41.877Z,0.93
2019-02-22T12:40:45.876Z,0.95
2019-02-22T12:41:49.920Z,1.00
2019-02-22T12:42:53.933Z,0.96
2019-02-22T12:43:59.940Z,1.03
2019-02-22T12:45:03.148Z,1.07
2019-02-22T12:46:06.182Z,1.17
2019-02-22T12:47:10.226Z,1.19
2019-02-22T12:48:14.214Z,1.19
2019-02-22T12:49:18.312Z,1.19
2019-02-22T12:50:22.344Z,1.21
2019-02-22T12:51:26.360Z,1.13
2019-02-22T12:52:30.429Z,1.04
2019-02-22T12:53:34.444Z,0.92
2019-02-22T12:54:38.602Z,0.92
2019-02-22T12:55:42.634Z,0.87
2019-02-22T12:56:56.653Z,0.90
2019-02-22T12:57:50.740Z,0.84
2019-02-22T12:58:54.757Z,0.81
2019-02-22T12:59:58.932Z,0.70
2019-02-22T13:01:02.990Z,0.70
2019-02-22T13:02:07.065Z,0.68
2019-02-22T13:03:11.101Z,0.68
2019-02-22T13:04:15.186Z,0.58
2019-02-22T13:05:19.489Z,0.66
2019-02-22T13:06:23.837Z,0.69
2019-02-22T13:07:28.234Z,0.77
2019-02-22T13:08:32.648Z,0.68
2019-02-22T13:09:37.212Z,0.73
2019-02-22T13:10:41.592Z,0.67
2019-02-22T13:11:45.986Z,0.63
2019-02-22T13:12:50.403Z,0.74
2019-02-22T13:13:54.807Z,0.84
2019-02-22T13:14:59.231Z,0.90
2019-02-22T13:16:03.553Z,0.91
2019-02-22T13:17:07.957Z,0.97
2019-02-22T13:18:12.334Z,1.10
2019-02-22T13:19:16.648Z,1.10
2019-02-22T13:20:20.986Z,1.10
2019-02-22T13:21:25.308Z,1.16
2019-02-22T13:22:29.673Z,1.28
2019-02-22T13:23:33.969Z,1.32
2019-02-22T13:24:38.294Z,1.29
2019-02-22T13:25:42.686Z,1.48
2019-02-22T13:26:47.083Z,1.51
2019-02-22T13:27:51.415Z,1.61
2019-02-22T13:28:55.712Z,1.61
2019-02-22T13:29:59.960Z,1.71
2019-02-22T13:31:04.358Z,1.79
2019-02-22T13:32:08.701Z,1.72
2019-02-22T13:33:13.058Z,1.76
2019-02-22T13:34:17.407Z,1.77
2019-02-22T13:35:21.718Z,1.80
2019-02-22T13:36:25.975Z,1.83
2019-02-22T13:37:30.067Z,1.75
2019-02-22T13:38:34.073Z,1.84
2019-02-22T13:39:38.081Z,1.94
2019-02-22T13:40:42.145Z,2.12
2019-02-22T13:41:46.240Z,2.08
2019-02-22T13:42:56.960Z,2.16
2019-02-22T13:44:01.261Z,2.19
2019-02-22T13:45:05.873Z,2.24
2019-02-22T13:46:09.913Z,2.34
2019-02-22T13:47:13.912Z,2.40
2019-02-22T13:48:17.996Z,2.44
2019-02-22T13:49:22.386Z,2.41
2019-02-22T13:50:26.434Z,2.32
2019-02-22T13:51:30.435Z,2.51
2019-02-22T13:52:34.453Z,2.44
2019-02-22T13:53:38.548Z,2.46